LEJR/XRY METAR and TAF weather

Enter ICAO airport designator
Station Type Date Time Source
LEJR METAR 2022/06/30 13:30 UTC NOAA

LEJR 301330Z 24011KT 190V270 CAVOK 28/08 Q1013


Station Type Date Time Source
LEJR Decoded METAR 2022/06/30 13:30 UTC NOAA

Jerez De La Fronteraaeropuerto, Spain (LEJR) 36-45N 006-04W 28M
Jun 30, 2022 - 09:30 AM EDT / 2022.06.30 1330 UTC
Wind: from the WSW (240 degrees) at 13 MPH (11 KT) (direction variable):0
Visibility: greater than 7 mile(s):0
Temperature: 82 F (28 C)
Dew Point: 46 F (8 C)
Relative Humidity: 28%
Pressure (altimeter): 29.91 in. Hg (1013 hPa)
ob: LEJR 301330Z 24011KT 190V270 CAVOK 28/08 Q1013
cycle: 13

Station Type Date Time Source
LEJR TAF 2022/06/30 09:27 UTC NOAA

TAF LEJR 300800Z 3009/0109 VRB02KT CAVOK TX30/3014Z TN14/0105Z
BECMG 3010/3013 26010KT
BECMG 3019/3021 17005KT

Example: see airport list